sensor_id;sensor_type;location;lat;lon;timestamp;temperature;humidity
15630;DHT22;7914;50.842;0.166;2023-09-12T00:00:16;18.40;100.00
15630;DHT22;7914;50.842;0.166;2023-09-12T00:02:42;18.40;100.00
15630;DHT22;7914;50.842;0.166;2023-09-12T00:05:07;18.40;100.00
15630;DHT22;7914;50.842;0.166;2023-09-12T00:07:35;18.30;100.00
15630;DHT22;7914;50.842;0.166;2023-09-12T00:10:00;18.30;100.00
15630;DHT22;7914;50.842;0.166;2023-09-12T00:12:27;18.30;100.00
15630;DHT22;7914;50.842;0.166;2023-09-12T00:14:53;18.30;100.00
15630;DHT22;7914;50.842;0.166;2023-09-12T00:17:18;18.20;100.00
15630;DHT22;7914;50.842;0.166;2023-09-12T00:19:44;18.10;100.00
15630;DHT22;7914;50.842;0.166;2023-09-12T00:22:10;18.10;100.00
15630;DHT22;7914;50.842;0.166;2023-09-12T00:24:36;18.00;100.00
15630;DHT22;7914;50.842;0.166;2023-09-12T00:27:07;18.00;100.00
15630;DHT22;7914;50.842;0.166;2023-09-12T00:29:33;17.90;100.00
15630;DHT22;7914;50.842;0.166;2023-09-12T00:31:59;17.90;100.00
15630;DHT22;7914;50.842;0.166;2023-09-12T00:34:24;17.80;100.00
15630;DHT22;7914;50.842;0.166;2023-09-12T00:36:50;17.80;100.00
15630;DHT22;7914;50.842;0.166;2023-09-12T00:39:15;17.80;100.00
15630;DHT22;7914;50.842;0.166;2023-09-12T00:41:41;17.70;100.00
15630;DHT22;7914;50.842;0.166;2023-09-12T00:44:32;17.70;100.00
15630;DHT22;7914;50.842;0.166;2023-09-12T00:46:58;17.60;100.00
15630;DHT22;7914;50.842;0.166;2023-09-12T00:49:24;17.60;100.00
15630;DHT22;7914;50.842;0.166;2023-09-12T00:51:50;17.60;100.00
15630;DHT22;7914;50.842;0.166;2023-09-12T00:54:17;17.70;100.00
15630;DHT22;7914;50.842;0.166;2023-09-12T00:56:43;17.60;100.00
15630;DHT22;7914;50.842;0.166;2023-09-12T00:59:09;17.60;100.00
15630;DHT22;7914;50.842;0.166;2023-09-12T01:01:42;17.60;100.00
15630;DHT22;7914;50.842;0.166;2023-09-12T01:04:08;17.60;100.00
15630;DHT22;7914;50.842;0.166;2023-09-12T01:06:34;17.50;100.00
15630;DHT22;7914;50.842;0.166;2023-09-12T01:09:00;17.50;100.00
15630;DHT22;7914;50.842;0.166;2023-09-12T01:11:26;17.40;100.00
15630;DHT22;7914;50.842;0.166;2023-09-12T01:13:52;17.40;100.00
15630;DHT22;7914;50.842;0.166;2023-09-12T01:16:18;17.40;100.00
15630;DHT22;7914;50.842;0.166;2023-09-12T01:18:44;17.40;100.00
15630;DHT22;7914;50.842;0.166;2023-09-12T01:29:57;17.50;100.00
15630;DHT22;7914;50.842;0.166;2023-09-12T01:32:23;17.50;100.00
15630;DHT22;7914;50.842;0.166;2023-09-12T01:34:49;17.50;100.00
15630;DHT22;7914;50.842;0.166;2023-09-12T01:37:15;17.50;100.00
15630;DHT22;7914;50.842;0.166;2023-09-12T01:39:41;17.50;100.00
15630;DHT22;7914;50.842;0.166;2023-09-12T01:42:11;17.40;100.00
15630;DHT22;7914;50.842;0.166;2023-09-12T01:44:38;17.40;100.00
15630;DHT22;7914;50.842;0.166;2023-09-12T01:47:05;17.40;100.00
15630;DHT22;7914;50.842;0.166;2023-09-12T01:49:32;17.40;100.00
15630;DHT22;7914;50.842;0.166;2023-09-12T01:51:59;17.50;100.00
15630;DHT22;7914;50.842;0.166;2023-09-12T01:54:26;17.50;100.00
15630;DHT22;7914;50.842;0.166;2023-09-12T01:56:54;17.60;100.00
15630;DHT22;7914;50.842;0.166;2023-09-12T01:59:23;17.60;100.00
15630;DHT22;7914;50.842;0.166;2023-09-12T02:01:50;17.60;100.00
15630;DHT22;7914;50.842;0.166;2023-09-12T02:04:16;17.60;100.00
15630;DHT22;7914;50.842;0.166;2023-09-12T02:06:41;17.60;100.00
15630;DHT22;7914;50.842;0.166;2023-09-12T02:09:11;17.50;100.00
15630;DHT22;7914;50.842;0.166;2023-09-12T02:11:36;17.50;100.00
15630;DHT22;7914;50.842;0.166;2023-09-12T02:14:02;17.50;100.00
15630;DHT22;7914;50.842;0.166;2023-09-12T02:16:29;17.50;100.00
15630;DHT22;7914;50.842;0.166;2023-09-12T02:18:55;17.50;100.00
15630;DHT22;7914;50.842;0.166;2023-09-12T02:21:20;17.50;100.00
15630;DHT22;7914;50.842;0.166;2023-09-12T02:23:46;17.50;100.00
15630;DHT22;7914;50.842;0.166;2023-09-12T02:26:12;17.40;100.00
15630;DHT22;7914;50.842;0.166;2023-09-12T02:28:37;17.50;100.00
15630;DHT22;7914;50.842;0.166;2023-09-12T02:31:03;17.40;100.00
15630;DHT22;7914;50.842;0.166;2023-09-12T02:33:32;17.40;100.00
15630;DHT22;7914;50.842;0.166;2023-09-12T02:35:57;17.40;100.00
15630;DHT22;7914;50.842;0.166;2023-09-12T02:38:23;17.30;100.00
15630;DHT22;7914;50.842;0.166;2023-09-12T02:40:49;17.30;100.00
15630;DHT22;7914;50.842;0.166;2023-09-12T02:43:14;17.30;100.00
15630;DHT22;7914;50.842;0.166;2023-09-12T02:45:40;17.20;100.00
15630;DHT22;7914;50.842;0.166;2023-09-12T02:48:06;17.20;100.00
15630;DHT22;7914;50.842;0.166;2023-09-12T02:50:32;17.10;100.00
15630;DHT22;7914;50.842;0.166;2023-09-12T02:52:57;17.10;100.00
15630;DHT22;7914;50.842;0.166;2023-09-12T02:55:23;17.00;100.00
15630;DHT22;7914;50.842;0.166;2023-09-12T02:57:49;17.00;100.00
15630;DHT22;7914;50.842;0.166;2023-09-12T03:00:14;17.00;100.00
15630;DHT22;7914;50.842;0.166;2023-09-12T03:02:40;17.00;100.00
15630;DHT22;7914;50.842;0.166;2023-09-12T03:05:06;17.00;100.00
15630;DHT22;7914;50.842;0.166;2023-09-12T03:07:31;17.00;100.00
15630;DHT22;7914;50.842;0.166;2023-09-12T03:09:57;17.10;100.00
15630;DHT22;7914;50.842;0.166;2023-09-12T03:12:24;17.10;100.00
15630;DHT22;7914;50.842;0.166;2023-09-12T03:14:52;17.10;100.00
15630;DHT22;7914;50.842;0.166;2023-09-12T03:17:18;17.10;100.00
15630;DHT22;7914;50.842;0.166;2023-09-12T03:19:44;17.10;100.00
15630;DHT22;7914;50.842;0.166;2023-09-12T03:22:09;17.10;100.00
15630;DHT22;7914;50.842;0.166;2023-09-12T03:24:35;17.00;100.00
15630;DHT22;7914;50.842;0.166;2023-09-12T03:27:01;17.00;100.00
15630;DHT22;7914;50.842;0.166;2023-09-12T03:29:27;16.90;100.00
15630;DHT22;7914;50.842;0.166;2023-09-12T03:31:52;16.90;100.00
15630;DHT22;7914;50.842;0.166;2023-09-12T03:34:18;16.90;100.00
15630;DHT22;7914;50.842;0.166;2023-09-12T03:36:44;16.90;100.00
15630;DHT22;7914;50.842;0.166;2023-09-12T03:39:10;16.90;100.00
15630;DHT22;7914;50.842;0.166;2023-09-12T03:41:44;16.90;100.00
15630;DHT22;7914;50.842;0.166;2023-09-12T03:44:10;16.90;100.00
15630;DHT22;7914;50.842;0.166;2023-09-12T03:46:35;16.90;100.00
15630;DHT22;7914;50.842;0.166;2023-09-12T03:49:01;17.00;100.00
15630;DHT22;7914;50.842;0.166;2023-09-12T03:51:27;17.00;100.00
15630;DHT22;7914;50.842;0.166;2023-09-12T03:53:52;16.90;100.00
15630;DHT22;7914;50.842;0.166;2023-09-12T03:56:18;16.90;100.00
15630;DHT22;7914;50.842;0.166;2023-09-12T03:58:45;17.00;100.00
15630;DHT22;7914;50.842;0.166;2023-09-12T04:01:23;17.00;100.00
15630;DHT22;7914;50.842;0.166;2023-09-12T04:03:49;17.00;100.00
15630;DHT22;7914;50.842;0.166;2023-09-12T04:06:15;17.00;100.00
15630;DHT22;7914;50.842;0.166;2023-09-12T04:08:40;17.00;100.00
15630;DHT22;7914;50.842;0.166;2023-09-12T04:11:06;17.10;100.00
15630;DHT22;7914;50.842;0.166;2023-09-12T04:13:32;17.10;100.00
15630;DHT22;7914;50.842;0.166;2023-09-12T04:15:58;17.20;100.00
15630;DHT22;7914;50.842;0.166;2023-09-12T04:18:23;17.20;100.00
15630;DHT22;7914;50.842;0.166;2023-09-12T04:20:49;17.20;100.00
15630;DHT22;7914;50.842;0.166;2023-09-12T04:23:18;17.20;100.00
15630;DHT22;7914;50.842;0.166;2023-09-12T04:25:46;17.20;100.00
15630;DHT22;7914;50.842;0.166;2023-09-12T04:28:12;17.20;100.00
15630;DHT22;7914;50.842;0.166;2023-09-12T04:30:37;17.20;100.00
15630;DHT22;7914;50.842;0.166;2023-09-12T04:33:05;17.10;100.00
15630;DHT22;7914;50.842;0.166;2023-09-12T04:35:33;17.10;100.00
15630;DHT22;7914;50.842;0.166;2023-09-12T04:37:59;17.10;100.00
15630;DHT22;7914;50.842;0.166;2023-09-12T04:40:24;17.10;100.00
15630;DHT22;7914;50.842;0.166;2023-09-12T04:43:02;17.10;100.00
15630;DHT22;7914;50.842;0.166;2023-09-12T04:45:28;17.10;100.00
15630;DHT22;7914;50.842;0.166;2023-09-12T04:47:54;17.10;100.00
15630;DHT22;7914;50.842;0.166;2023-09-12T04:50:19;17.10;100.00
15630;DHT22;7914;50.842;0.166;2023-09-12T04:52:45;17.10;100.00
15630;DHT22;7914;50.842;0.166;2023-09-12T04:55:11;17.10;100.00
15630;DHT22;7914;50.842;0.166;2023-09-12T04:57:38;17.00;100.00
15630;DHT22;7914;50.842;0.166;2023-09-12T05:00:04;17.00;100.00
15630;DHT22;7914;50.842;0.166;2023-09-12T05:02:30;17.00;100.00
15630;DHT22;7914;50.842;0.166;2023-09-12T05:04:56;17.00;100.00
15630;DHT22;7914;50.842;0.166;2023-09-12T05:07:21;17.00;100.00
15630;DHT22;7914;50.842;0.166;2023-09-12T05:09:48;16.90;100.00
15630;DHT22;7914;50.842;0.166;2023-09-12T05:12:13;17.00;100.00
15630;DHT22;7914;50.842;0.166;2023-09-12T05:14:39;17.00;100.00
15630;DHT22;7914;50.842;0.166;2023-09-12T05:17:05;17.00;100.00
15630;DHT22;7914;50.842;0.166;2023-09-12T05:19:30;17.00;100.00
15630;DHT22;7914;50.842;0.166;2023-09-12T05:21:57;17.10;100.00
15630;DHT22;7914;50.842;0.166;2023-09-12T05:24:22;17.10;100.00
15630;DHT22;7914;50.842;0.166;2023-09-12T05:26:48;17.10;100.00
15630;DHT22;7914;50.842;0.166;2023-09-12T05:29:14;17.10;100.00
15630;DHT22;7914;50.842;0.166;2023-09-12T05:31:40;17.10;100.00
15630;DHT22;7914;50.842;0.166;2023-09-12T05:34:06;17.10;100.00
15630;DHT22;7914;50.842;0.166;2023-09-12T05:36:31;17.10;100.00
15630;DHT22;7914;50.842;0.166;2023-09-12T05:38:57;17.10;100.00
15630;DHT22;7914;50.842;0.166;2023-09-12T05:41:42;17.10;100.00
15630;DHT22;7914;50.842;0.166;2023-09-12T05:44:07;17.20;100.00
15630;DHT22;7914;50.842;0.166;2023-09-12T05:46:33;17.20;100.00
15630;DHT22;7914;50.842;0.166;2023-09-12T05:48:59;17.20;100.00
15630;DHT22;7914;50.842;0.166;2023-09-12T05:51:24;17.20;100.00
15630;DHT22;7914;50.842;0.166;2023-09-12T05:53:50;17.20;100.00
15630;DHT22;7914;50.842;0.166;2023-09-12T05:56:16;17.30;100.00
15630;DHT22;7914;50.842;0.166;2023-09-12T05:58:41;17.30;100.00
15630;DHT22;7914;50.842;0.166;2023-09-12T06:01:23;17.40;100.00
15630;DHT22;7914;50.842;0.166;2023-09-12T06:03:49;17.40;100.00
15630;DHT22;7914;50.842;0.166;2023-09-12T06:06:14;17.40;100.00
15630;DHT22;7914;50.842;0.166;2023-09-12T06:08:40;17.40;100.00
15630;DHT22;7914;50.842;0.166;2023-09-12T06:11:06;17.40;100.00
15630;DHT22;7914;50.842;0.166;2023-09-12T06:13:32;17.50;100.00
15630;DHT22;7914;50.842;0.166;2023-09-12T06:15:59;17.50;100.00
15630;DHT22;7914;50.842;0.166;2023-09-12T06:18:24;17.50;100.00
15630;DHT22;7914;50.842;0.166;2023-09-12T06:20:52;17.50;100.00
15630;DHT22;7914;50.842;0.166;2023-09-12T06:23:18;17.50;100.00
15630;DHT22;7914;50.842;0.166;2023-09-12T06:25:43;17.50;100.00
15630;DHT22;7914;50.842;0.166;2023-09-12T06:28:09;17.50;100.00
15630;DHT22;7914;50.842;0.166;2023-09-12T06:30:36;17.50;100.00
15630;DHT22;7914;50.842;0.166;2023-09-12T06:33:32;17.50;100.00
15630;DHT22;7914;50.842;0.166;2023-09-12T06:36:01;17.60;100.00
15630;DHT22;7914;50.842;0.166;2023-09-12T06:38:27;17.60;100.00
15630;DHT22;7914;50.842;0.166;2023-09-12T06:40:53;17.70;100.00
15630;DHT22;7914;50.842;0.166;2023-09-12T06:43:19;17.80;100.00
15630;DHT22;7914;50.842;0.166;2023-09-12T06:45:46;17.80;100.00
15630;DHT22;7914;50.842;0.166;2023-09-12T06:48:12;17.90;100.00
15630;DHT22;7914;50.842;0.166;2023-09-12T06:50:39;18.00;100.00
15630;DHT22;7914;50.842;0.166;2023-09-12T06:53:08;18.10;100.00
15630;DHT22;7914;50.842;0.166;2023-09-12T06:55:35;18.20;100.00
15630;DHT22;7914;50.842;0.166;2023-09-12T06:58:01;18.30;100.00
15630;DHT22;7914;50.842;0.166;2023-09-12T07:00:26;18.30;100.00
15630;DHT22;7914;50.842;0.166;2023-09-12T07:02:52;18.30;100.00
15630;DHT22;7914;50.842;0.166;2023-09-12T07:05:18;18.30;100.00
15630;DHT22;7914;50.842;0.166;2023-09-12T07:07:43;18.40;100.00
15630;DHT22;7914;50.842;0.166;2023-09-12T07:10:09;18.50;100.00
15630;DHT22;7914;50.842;0.166;2023-09-12T07:12:35;18.50;100.00
15630;DHT22;7914;50.842;0.166;2023-09-12T07:15:01;18.50;100.00
15630;DHT22;7914;50.842;0.166;2023-09-12T07:17:33;18.60;100.00
15630;DHT22;7914;50.842;0.166;2023-09-12T07:19:58;18.60;100.00
15630;DHT22;7914;50.842;0.166;2023-09-12T07:22:24;18.70;100.00
15630;DHT22;7914;50.842;0.166;2023-09-12T07:24:51;18.80;100.00
15630;DHT22;7914;50.842;0.166;2023-09-12T07:27:17;18.80;100.00
15630;DHT22;7914;50.842;0.166;2023-09-12T07:29:42;18.80;100.00
15630;DHT22;7914;50.842;0.166;2023-09-12T07:32:08;18.80;100.00
15630;DHT22;7914;50.842;0.166;2023-09-12T07:34:34;18.90;100.00
15630;DHT22;7914;50.842;0.166;2023-09-12T07:37:05;18.90;100.00
15630;DHT22;7914;50.842;0.166;2023-09-12T07:39:31;19.00;100.00
15630;DHT22;7914;50.842;0.166;2023-09-12T07:41:56;19.10;100.00
15630;DHT22;7914;50.842;0.166;2023-09-12T07:44:22;19.30;100.00
15630;DHT22;7914;50.842;0.166;2023-09-12T07:46:48;19.40;100.00
15630;DHT22;7914;50.842;0.166;2023-09-12T07:49:14;19.50;100.00
15630;DHT22;7914;50.842;0.166;2023-09-12T07:51:40;19.60;100.00
15630;DHT22;7914;50.842;0.166;2023-09-12T07:54:05;19.70;100.00
15630;DHT22;7914;50.842;0.166;2023-09-12T07:56:31;19.80;100.00
15630;DHT22;7914;50.842;0.166;2023-09-12T07:58:57;19.90;100.00
15630;DHT22;7914;50.842;0.166;2023-09-12T08:01:23;20.00;100.00
15630;DHT22;7914;50.842;0.166;2023-09-12T08:03:49;20.10;100.00
15630;DHT22;7914;50.842;0.166;2023-09-12T08:06:14;20.20;100.00
15630;DHT22;7914;50.842;0.166;2023-09-12T08:08:40;20.30;100.00
15630;DHT22;7914;50.842;0.166;2023-09-12T08:11:05;20.50;100.00
15630;DHT22;7914;50.842;0.166;2023-09-12T08:13:45;20.60;100.00
15630;DHT22;7914;50.842;0.166;2023-09-12T08:16:11;20.60;100.00
15630;DHT22;7914;50.842;0.166;2023-09-12T08:18:37;20.70;100.00
15630;DHT22;7914;50.842;0.166;2023-09-12T08:21:02;20.90;100.00
15630;DHT22;7914;50.842;0.166;2023-09-12T08:23:28;21.00;100.00
15630;DHT22;7914;50.842;0.166;2023-09-12T08:25:54;21.20;100.00
15630;DHT22;7914;50.842;0.166;2023-09-12T08:28:19;21.30;100.00
15630;DHT22;7914;50.842;0.166;2023-09-12T08:30:45;21.40;100.00
15630;DHT22;7914;50.842;0.166;2023-09-12T08:33:13;21.50;100.00
15630;DHT22;7914;50.842;0.166;2023-09-12T08:35:39;21.60;100.00
15630;DHT22;7914;50.842;0.166;2023-09-12T08:38:05;21.70;100.00
15630;DHT22;7914;50.842;0.166;2023-09-12T08:40:33;21.70;100.00
15630;DHT22;7914;50.842;0.166;2023-09-12T08:43:00;21.70;100.00
15630;DHT22;7914;50.842;0.166;2023-09-12T08:45:26;21.70;100.00
15630;DHT22;7914;50.842;0.166;2023-09-12T08:47:54;21.60;100.00
15630;DHT22;7914;50.842;0.166;2023-09-12T08:50:21;21.50;100.00
15630;DHT22;7914;50.842;0.166;2023-09-12T08:52:49;21.60;100.00
15630;DHT22;7914;50.842;0.166;2023-09-12T08:55:14;21.60;100.00
15630;DHT22;7914;50.842;0.166;2023-09-12T08:57:42;21.60;100.00
15630;DHT22;7914;50.842;0.166;2023-09-12T09:00:09;21.50;100.00
15630;DHT22;7914;50.842;0.166;2023-09-12T09:02:39;21.40;100.00
15630;DHT22;7914;50.842;0.166;2023-09-12T09:05:11;21.30;100.00
15630;DHT22;7914;50.842;0.166;2023-09-12T09:07:40;21.40;100.00
15630;DHT22;7914;50.842;0.166;2023-09-12T09:10:17;21.50;100.00
15630;DHT22;7914;50.842;0.166;2023-09-12T09:12:44;21.90;100.00
15630;DHT22;7914;50.842;0.166;2023-09-12T09:15:27;22.20;100.00
15630;DHT22;7914;50.842;0.166;2023-09-12T09:17:54;22.50;100.00
15630;DHT22;7914;50.842;0.166;2023-09-12T09:20:32;22.40;100.00
15630;DHT22;7914;50.842;0.166;2023-09-12T09:23:18;22.60;100.00
15630;DHT22;7914;50.842;0.166;2023-09-12T09:25:51;22.50;100.00
15630;DHT22;7914;50.842;0.166;2023-09-12T09:28:21;22.50;100.00
15630;DHT22;7914;50.842;0.166;2023-09-12T09:30:49;22.50;100.00
15630;DHT22;7914;50.842;0.166;2023-09-12T09:33:16;22.40;100.00
15630;DHT22;7914;50.842;0.166;2023-09-12T09:35:45;22.30;100.00
15630;DHT22;7914;50.842;0.166;2023-09-12T09:38:11;22.30;100.00
15630;DHT22;7914;50.842;0.166;2023-09-12T09:40:44;22.30;100.00
15630;DHT22;7914;50.842;0.166;2023-09-12T09:43:10;22.20;100.00
15630;DHT22;7914;50.842;0.166;2023-09-12T09:45:43;22.00;100.00
15630;DHT22;7914;50.842;0.166;2023-09-12T09:48:10;22.00;100.00
15630;DHT22;7914;50.842;0.166;2023-09-12T09:50:42;21.90;100.00
15630;DHT22;7914;50.842;0.166;2023-09-12T09:53:08;21.70;100.00
15630;DHT22;7914;50.842;0.166;2023-09-12T09:55:38;21.70;100.00
15630;DHT22;7914;50.842;0.166;2023-09-12T09:58:07;21.60;100.00
15630;DHT22;7914;50.842;0.166;2023-09-12T10:00:37;21.70;100.00
15630;DHT22;7914;50.842;0.166;2023-09-12T10:03:06;21.70;100.00
15630;DHT22;7914;50.842;0.166;2023-09-12T10:05:33;21.60;100.00
15630;DHT22;7914;50.842;0.166;2023-09-12T10:08:02;21.70;100.00
15630;DHT22;7914;50.842;0.166;2023-09-12T10:10:29;21.80;100.00
15630;DHT22;7914;50.842;0.166;2023-09-12T10:12:57;21.80;100.00
15630;DHT22;7914;50.842;0.166;2023-09-12T10:15:23;21.80;100.00
15630;DHT22;7914;50.842;0.166;2023-09-12T10:17:57;21.70;100.00
15630;DHT22;7914;50.842;0.166;2023-09-12T10:20:40;21.80;100.00
15630;DHT22;7914;50.842;0.166;2023-09-12T10:23:14;21.80;100.00
15630;DHT22;7914;50.842;0.166;2023-09-12T10:25:43;21.90;100.00
15630;DHT22;7914;50.842;0.166;2023-09-12T10:28:09;22.10;100.00
15630;DHT22;7914;50.842;0.166;2023-09-12T10:30:36;22.20;100.00
15630;DHT22;7914;50.842;0.166;2023-09-12T10:33:02;22.40;100.00
15630;DHT22;7914;50.842;0.166;2023-09-12T10:35:32;22.30;100.00
15630;DHT22;7914;50.842;0.166;2023-09-12T10:38:00;22.50;100.00
15630;DHT22;7914;50.842;0.166;2023-09-12T10:40:29;22.60;100.00
15630;DHT22;7914;50.842;0.166;2023-09-12T10:42:57;22.60;100.00
15630;DHT22;7914;50.842;0.166;2023-09-12T10:45:26;22.80;100.00
15630;DHT22;7914;50.842;0.166;2023-09-12T10:47:51;23.00;100.00
15630;DHT22;7914;50.842;0.166;2023-09-12T10:50:35;22.90;100.00
15630;DHT22;7914;50.842;0.166;2023-09-12T10:53:15;23.10;100.00
15630;DHT22;7914;50.842;0.166;2023-09-12T10:55:42;23.10;100.00
15630;DHT22;7914;50.842;0.166;2023-09-12T10:58:09;23.40;100.00
15630;DHT22;7914;50.842;0.166;2023-09-12T11:00:36;23.50;100.00
15630;DHT22;7914;50.842;0.166;2023-09-12T11:05:54;23.70;100.00
15630;DHT22;7914;50.842;0.166;2023-09-12T11:08:20;23.90;100.00
15630;DHT22;7914;50.842;0.166;2023-09-12T11:11:18;24.00;100.00
15630;DHT22;7914;50.842;0.166;2023-09-12T11:13:45;24.50;100.00
15630;DHT22;7914;50.842;0.166;2023-09-12T11:16:13;24.70;100.00
15630;DHT22;7914;50.842;0.166;2023-09-12T11:19:17;24.30;100.00
15630;DHT22;7914;50.842;0.166;2023-09-12T11:21:53;23.80;100.00
15630;DHT22;7914;50.842;0.166;2023-09-12T11:24:20;23.60;100.00
15630;DHT22;7914;50.842;0.166;2023-09-12T11:26:56;23.50;100.00
15630;DHT22;7914;50.842;0.166;2023-09-12T11:29:39;23.70;100.00
15630;DHT22;7914;50.842;0.166;2023-09-12T11:32:06;24.00;100.00
15630;DHT22;7914;50.842;0.166;2023-09-12T11:34:42;24.50;100.00
15630;DHT22;7914;50.842;0.166;2023-09-12T11:37:08;24.40;100.00
15630;DHT22;7914;50.842;0.166;2023-09-12T11:39:36;24.50;100.00
15630;DHT22;7914;50.842;0.166;2023-09-12T11:42:03;24.30;100.00
15630;DHT22;7914;50.842;0.166;2023-09-12T11:44:30;24.30;100.00
15630;DHT22;7914;50.842;0.166;2023-09-12T11:46:59;24.70;100.00
15630;DHT22;7914;50.842;0.166;2023-09-12T11:49:37;24.70;100.00
15630;DHT22;7914;50.842;0.166;2023-09-12T11:52:15;24.90;100.00
15630;DHT22;7914;50.842;0.166;2023-09-12T11:54:45;25.10;100.00
15630;DHT22;7914;50.842;0.166;2023-09-12T11:57:15;25.10;100.00
15630;DHT22;7914;50.842;0.166;2023-09-12T11:59:44;25.10;100.00
15630;DHT22;7914;50.842;0.166;2023-09-12T12:02:17;25.00;100.00
15630;DHT22;7914;50.842;0.166;2023-09-12T12:04:44;25.10;100.00
15630;DHT22;7914;50.842;0.166;2023-09-12T12:07:10;25.30;100.00
15630;DHT22;7914;50.842;0.166;2023-09-12T12:09:36;25.60;100.00
15630;DHT22;7914;50.842;0.166;2023-09-12T12:12:15;25.30;100.00
15630;DHT22;7914;50.842;0.166;2023-09-12T12:14:41;25.30;100.00
15630;DHT22;7914;50.842;0.166;2023-09-12T12:17:11;25.40;100.00
15630;DHT22;7914;50.842;0.166;2023-09-12T12:19:44;25.30;100.00
15630;DHT22;7914;50.842;0.166;2023-09-12T12:22:10;25.10;100.00
15630;DHT22;7914;50.842;0.166;2023-09-12T12:24:41;24.80;100.00
15630;DHT22;7914;50.842;0.166;2023-09-12T12:27:06;24.60;100.00
15630;DHT22;7914;50.842;0.166;2023-09-12T12:29:34;24.50;100.00
15630;DHT22;7914;50.842;0.166;2023-09-12T12:32:01;24.60;100.00
15630;DHT22;7914;50.842;0.166;2023-09-12T12:34:27;24.70;100.00
15630;DHT22;7914;50.842;0.166;2023-09-12T12:36:54;24.70;100.00
15630;DHT22;7914;50.842;0.166;2023-09-12T12:39:21;24.80;100.00
15630;DHT22;7914;50.842;0.166;2023-09-12T12:41:48;24.90;100.00
15630;DHT22;7914;50.842;0.166;2023-09-12T12:44:14;24.80;100.00
15630;DHT22;7914;50.842;0.166;2023-09-12T12:46:54;24.70;100.00
15630;DHT22;7914;50.842;0.166;2023-09-12T12:49:20;24.70;100.00
15630;DHT22;7914;50.842;0.166;2023-09-12T12:51:47;24.70;100.00
15630;DHT22;7914;50.842;0.166;2023-09-12T12:54:14;24.80;100.00
15630;DHT22;7914;50.842;0.166;2023-09-12T12:56:40;24.90;100.00
15630;DHT22;7914;50.842;0.166;2023-09-12T12:59:07;25.00;100.00
15630;DHT22;7914;50.842;0.166;2023-09-12T13:01:38;25.00;100.00
15630;DHT22;7914;50.842;0.166;2023-09-12T13:04:05;25.00;100.00
15630;DHT22;7914;50.842;0.166;2023-09-12T13:06:32;24.90;100.00
15630;DHT22;7914;50.842;0.166;2023-09-12T13:09:02;24.80;100.00
15630;DHT22;7914;50.842;0.166;2023-09-12T13:11:31;24.70;100.00
15630;DHT22;7914;50.842;0.166;2023-09-12T13:13:57;24.50;100.00
15630;DHT22;7914;50.842;0.166;2023-09-12T13:16:23;24.50;100.00
15630;DHT22;7914;50.842;0.166;2023-09-12T13:18:48;24.50;100.00
15630;DHT22;7914;50.842;0.166;2023-09-12T13:21:14;24.40;100.00
15630;DHT22;7914;50.842;0.166;2023-09-12T13:23:40;24.50;100.00
15630;DHT22;7914;50.842;0.166;2023-09-12T13:26:09;24.50;100.00
15630;DHT22;7914;50.842;0.166;2023-09-12T13:28:35;24.50;100.00
15630;DHT22;7914;50.842;0.166;2023-09-12T13:31:01;24.40;100.00
15630;DHT22;7914;50.842;0.166;2023-09-12T13:33:27;24.40;100.00
15630;DHT22;7914;50.842;0.166;2023-09-12T13:35:52;24.40;100.00
15630;DHT22;7914;50.842;0.166;2023-09-12T13:38:18;24.40;100.00
15630;DHT22;7914;50.842;0.166;2023-09-12T13:40:46;24.40;100.00
15630;DHT22;7914;50.842;0.166;2023-09-12T13:43:34;24.40;100.00
15630;DHT22;7914;50.842;0.166;2023-09-12T13:46:00;24.30;100.00
15630;DHT22;7914;50.842;0.166;2023-09-12T13:48:26;24.30;100.00
15630;DHT22;7914;50.842;0.166;2023-09-12T13:50:52;24.20;100.00
15630;DHT22;7914;50.842;0.166;2023-09-12T13:53:17;24.20;100.00
15630;DHT22;7914;50.842;0.166;2023-09-12T13:55:43;24.00;100.00
15630;DHT22;7914;50.842;0.166;2023-09-12T13:58:09;24.00;100.00
15630;DHT22;7914;50.842;0.166;2023-09-12T14:00:34;24.00;100.00
15630;DHT22;7914;50.842;0.166;2023-09-12T14:03:01;24.00;100.00
15630;DHT22;7914;50.842;0.166;2023-09-12T14:05:27;24.20;100.00
15630;DHT22;7914;50.842;0.166;2023-09-12T14:07:53;24.20;100.00
15630;DHT22;7914;50.842;0.166;2023-09-12T14:10:19;24.20;100.00
15630;DHT22;7914;50.842;0.166;2023-09-12T14:12:44;24.10;100.00
15630;DHT22;7914;50.842;0.166;2023-09-12T14:15:11;24.10;100.00
15630;DHT22;7914;50.842;0.166;2023-09-12T14:17:37;24.00;100.00
15630;DHT22;7914;50.842;0.166;2023-09-12T14:20:03;23.80;100.00
15630;DHT22;7914;50.842;0.166;2023-09-12T14:22:29;23.70;100.00
15630;DHT22;7914;50.842;0.166;2023-09-12T14:24:55;23.60;100.00
15630;DHT22;7914;50.842;0.166;2023-09-12T14:27:21;23.50;100.00
15630;DHT22;7914;50.842;0.166;2023-09-12T14:29:46;23.20;100.00
15630;DHT22;7914;50.842;0.166;2023-09-12T14:32:14;23.10;100.00
15630;DHT22;7914;50.842;0.166;2023-09-12T14:34:40;23.10;100.00
15630;DHT22;7914;50.842;0.166;2023-09-12T14:37:06;23.00;100.00
15630;DHT22;7914;50.842;0.166;2023-09-12T14:39:44;23.20;100.00
15630;DHT22;7914;50.842;0.166;2023-09-12T14:42:13;23.30;100.00
15630;DHT22;7914;50.842;0.166;2023-09-12T14:44:40;23.40;100.00
15630;DHT22;7914;50.842;0.166;2023-09-12T14:47:06;23.50;100.00
15630;DHT22;7914;50.842;0.166;2023-09-12T14:49:32;23.40;100.00
15630;DHT22;7914;50.842;0.166;2023-09-12T14:51:57;23.50;100.00
15630;DHT22;7914;50.842;0.166;2023-09-12T14:54:23;23.40;100.00
15630;DHT22;7914;50.842;0.166;2023-09-12T14:56:49;23.50;100.00
15630;DHT22;7914;50.842;0.166;2023-09-12T14:59:16;23.50;100.00
15630;DHT22;7914;50.842;0.166;2023-09-12T15:01:42;23.60;100.00
15630;DHT22;7914;50.842;0.166;2023-09-12T15:04:09;23.70;100.00
15630;DHT22;7914;50.842;0.166;2023-09-12T15:06:35;23.70;100.00
15630;DHT22;7914;50.842;0.166;2023-09-12T15:09:01;23.70;100.00
15630;DHT22;7914;50.842;0.166;2023-09-12T15:11:27;23.70;100.00
15630;DHT22;7914;50.842;0.166;2023-09-12T15:14:15;23.40;100.00
15630;DHT22;7914;50.842;0.166;2023-09-12T15:16:40;23.20;100.00
15630;DHT22;7914;50.842;0.166;2023-09-12T15:19:06;23.00;100.00
15630;DHT22;7914;50.842;0.166;2023-09-12T15:21:32;22.90;100.00
15630;DHT22;7914;50.842;0.166;2023-09-12T15:23:57;22.90;100.00
15630;DHT22;7914;50.842;0.166;2023-09-12T15:26:23;22.80;100.00
15630;DHT22;7914;50.842;0.166;2023-09-12T15:28:49;22.80;100.00
15630;DHT22;7914;50.842;0.166;2023-09-12T15:31:14;22.70;100.00
15630;DHT22;7914;50.842;0.166;2023-09-12T15:33:46;22.70;100.00
15630;DHT22;7914;50.842;0.166;2023-09-12T15:36:12;22.70;100.00
15630;DHT22;7914;50.842;0.166;2023-09-12T15:38:37;22.70;100.00
15630;DHT22;7914;50.842;0.166;2023-09-12T15:44:35;22.40;100.00
15630;DHT22;7914;50.842;0.166;2023-09-12T15:47:00;22.40;100.00